createdAt,value
2023-02-11T00:02:05.365Z,38.77
2023-02-11T00:04:38.629Z,37.43
2023-02-11T00:07:11.763Z,35.07
2023-02-11T00:09:44.828Z,36.80
2023-02-11T00:12:19.646Z,37.87
2023-02-11T00:14:54.260Z,37.73
2023-02-11T00:17:27.439Z,34.93
2023-02-11T00:20:00.803Z,35.70
2023-02-11T00:22:34.210Z,38.60
2023-02-11T00:25:07.942Z,35.03
2023-02-11T00:27:41.132Z,35.20
2023-02-11T00:30:16.529Z,34.80
2023-02-11T00:32:49.794Z,34.57
2023-02-11T00:35:22.964Z,34.73
2023-02-11T00:37:57.312Z,33.40
2023-02-11T00:40:30.391Z,32.37
2023-02-11T00:43:03.649Z,31.77
2023-02-11T00:45:38.170Z,34.33
2023-02-11T00:48:11.295Z,36.93
2023-02-11T00:50:44.659Z,35.20
2023-02-11T00:53:17.969Z,32.37
2023-02-11T00:55:51.353Z,29.70
2023-02-11T00:58:24.790Z,32.80
2023-02-11T01:00:59.467Z,29.50
2023-02-11T01:03:32.828Z,30.90
2023-02-11T01:06:06.878Z,34.13
2023-02-11T01:08:40.790Z,32.00
2023-02-11T01:11:16.750Z,33.30
2023-02-11T01:13:50.917Z,30.23
2023-02-11T01:16:25.524Z,32.83
2023-02-11T01:18:58.975Z,30.77
2023-02-11T01:21:32.157Z,32.37
2023-02-11T01:24:05.731Z,35.27
2023-02-11T01:26:38.830Z,33.83
2023-02-11T01:29:11.929Z,33.90
2023-02-11T01:31:46.419Z,34.77
2023-02-11T01:34:19.589Z,31.40
2023-02-11T01:36:52.731Z,31.77
2023-02-11T01:39:26.012Z,34.20
2023-02-11T01:41:59.118Z,31.60
2023-02-11T01:44:36.218Z,35.93
2023-02-11T01:47:11.071Z,32.87
2023-02-11T01:49:48.900Z,32.23
2023-02-11T01:52:27.711Z,30.57
2023-02-11T01:55:22.527Z,32.27
2023-02-11T01:57:59.825Z,30.73
2023-02-11T02:00:37.578Z,31.07
2023-02-11T02:03:16.968Z,30.17
2023-02-11T02:05:55.606Z,31.90
2023-02-11T02:08:37.445Z,32.47
2023-02-11T02:11:11.293Z,31.07
2023-02-11T02:13:44.407Z,29.73
2023-02-11T02:16:21.030Z,31.13
2023-02-11T02:19:08.899Z,33.73
2023-02-11T02:22:33.479Z,35.30
2023-02-11T02:26:00.124Z,30.83
2023-02-11T02:29:07.975Z,35.17
2023-02-11T02:32:00.397Z,35.57
2023-02-11T02:34:43.272Z,33.20
2023-02-11T02:37:22.956Z,34.77
2023-02-11T02:39:58.932Z,36.57
2023-02-11T02:42:33.375Z,36.23
2023-02-11T02:45:08.738Z,31.23
2023-02-11T02:47:42.188Z,35.00
2023-02-11T02:50:30.183Z,35.07
2023-02-11T02:53:21.337Z,34.40
2023-02-11T02:56:02.674Z,35.87
2023-02-11T02:58:57.823Z,34.80
2023-02-11T03:01:41.170Z,37.33
2023-02-11T03:04:22.636Z,35.00
2023-02-11T03:07:04.866Z,35.40
2023-02-11T03:09:44.444Z,35.70
2023-02-11T03:12:18.797Z,36.13
2023-02-11T03:14:53.535Z,37.03
2023-02-11T03:17:29.887Z,37.40
2023-02-11T03:20:05.313Z,39.07
2023-02-11T03:22:44.492Z,34.23
2023-02-11T03:25:18.152Z,37.40
2023-02-11T03:27:59.076Z,37.23
2023-02-11T03:30:39.102Z,35.23
2023-02-11T03:33:20.478Z,39.40
2023-02-11T03:35:58.981Z,33.83
2023-02-11T03:38:37.518Z,33.53
2023-02-11T03:41:12.217Z,34.17
2023-02-11T03:43:50.122Z,33.23
2023-02-11T03:46:30.163Z,36.93
2023-02-11T03:49:08.203Z,35.87
2023-02-11T03:51:42.216Z,33.87
2023-02-11T03:54:22.405Z,35.80
2023-02-11T03:56:58.602Z,37.03
2023-02-11T03:59:31.800Z,33.50
2023-02-11T04:02:04.939Z,34.87
2023-02-11T04:04:38.099Z,34.60
2023-02-11T04:07:12.783Z,32.60
2023-02-11T04:09:47.433Z,35.50
2023-02-11T04:12:21.365Z,36.47
2023-02-11T04:14:54.461Z,35.70
2023-02-11T04:17:27.605Z,37.87
2023-02-11T04:20:00.762Z,35.50
2023-02-11T04:22:33.953Z,34.70
2023-02-11T04:25:10.437Z,34.30
2023-02-11T04:27:43.668Z,38.07
2023-02-11T04:30:16.857Z,34.70
2023-02-11T04:32:50.021Z,34.63
2023-02-11T04:35:23.419Z,33.67
2023-02-11T04:37:56.729Z,34.17
2023-02-11T04:40:31.284Z,36.67
2023-02-11T04:43:04.499Z,37.80
2023-02-11T04:45:37.838Z,36.57
2023-02-11T04:48:11.037Z,38.97
2023-02-11T04:50:44.143Z,40.30
2023-02-11T04:53:17.360Z,40.10
2023-02-11T04:55:52.874Z,37.50
2023-02-11T04:58:26.247Z,35.70
2023-02-11T05:01:08.005Z,35.63
2023-02-11T05:03:42.438Z,38.77
2023-02-11T05:06:15.760Z,36.00
2023-02-11T05:08:49.014Z,38.30
2023-02-11T05:11:25.857Z,48.87
2023-02-11T05:13:59.060Z,41.83
2023-02-11T05:16:32.337Z,44.60
2023-02-11T05:19:05.742Z,38.73
2023-02-11T05:21:40.113Z,39.77
2023-02-11T05:24:15.542Z,41.83
2023-02-11T05:26:50.037Z,38.67
2023-02-11T05:29:23.266Z,40.17
2023-02-11T05:31:56.443Z,36.07
2023-02-11T05:34:29.931Z,41.20
2023-02-11T05:37:03.223Z,38.43
2023-02-11T05:39:36.550Z,38.00
2023-02-11T05:42:11.228Z,39.87
2023-02-11T05:44:44.543Z,35.60
2023-02-11T05:47:17.782Z,37.37
2023-02-11T05:49:51.060Z,37.30
2023-02-11T05:52:25.123Z,34.53
2023-02-11T05:54:58.336Z,35.07
2023-02-11T05:57:32.843Z,35.80
2023-02-11T06:00:08.478Z,34.97
2023-02-11T06:02:42.014Z,32.23
2023-02-11T06:05:15.576Z,34.23
2023-02-11T06:07:48.848Z,37.33
2023-02-11T06:10:22.076Z,35.73
2023-02-11T06:12:56.634Z,35.80
2023-02-11T06:15:29.956Z,35.53
2023-02-11T06:18:03.105Z,37.60
2023-02-11T06:20:36.393Z,39.63
2023-02-11T06:23:09.667Z,38.93
2023-02-11T06:25:42.856Z,39.20
2023-02-11T06:28:17.543Z,38.23
2023-02-11T06:30:50.843Z,39.20
2023-02-11T06:33:24.372Z,39.10
2023-02-11T06:35:57.470Z,42.00
2023-02-11T06:38:30.638Z,39.83
2023-02-11T06:41:03.796Z,41.97
2023-02-11T06:43:38.363Z,42.30
2023-02-11T06:46:11.895Z,41.07
2023-02-11T06:48:45.581Z,42.73
2023-02-11T06:51:18.863Z,36.87
2023-02-11T06:53:52.596Z,40.47
2023-02-11T06:56:27.445Z,41.40
2023-02-11T06:59:02.478Z,39.97
2023-02-11T07:01:35.913Z,44.17
2023-02-11T07:04:09.190Z,41.97
2023-02-11T07:06:42.868Z,43.47
2023-02-11T07:09:16.051Z,40.57
2023-02-11T07:11:49.180Z,41.10
2023-02-11T07:14:23.714Z,40.57
2023-02-11T07:16:57.037Z,37.97
2023-02-11T07:19:30.173Z,42.83
2023-02-11T07:22:03.306Z,37.73
2023-02-11T07:24:36.539Z,39.87
2023-02-11T07:27:09.763Z,36.80
2023-02-11T07:29:46.024Z,39.30
2023-02-11T07:32:19.261Z,40.80
2023-02-11T07:34:52.509Z,35.37
2023-02-11T07:37:25.688Z,43.47
2023-02-11T07:39:58.864Z,38.43
2023-02-11T07:42:32.160Z,37.80
2023-02-11T07:45:07.845Z,37.87
2023-02-11T07:47:42.749Z,38.37
2023-02-11T07:50:17.036Z,36.70
2023-02-11T07:52:50.130Z,38.30
2023-02-11T07:55:23.394Z,39.33
2023-02-11T07:57:56.531Z,41.37
2023-02-11T08:00:31.426Z,38.93
2023-02-11T08:03:05.437Z,40.47
2023-02-11T08:05:40.155Z,38.77
2023-02-11T08:08:13.249Z,40.70
2023-02-11T08:10:46.332Z,40.03
2023-02-11T08:13:19.571Z,36.70
2023-02-11T08:15:54.082Z,44.87
2023-02-11T08:18:27.200Z,38.07
2023-02-11T08:21:06.723Z,38.97
2023-02-11T08:23:41.311Z,42.57
2023-02-11T08:26:18.355Z,41.37
2023-02-11T08:28:53.663Z,39.67
2023-02-11T08:31:31.144Z,40.40
2023-02-11T08:34:04.848Z,39.77
2023-02-11T08:36:40.401Z,38.63
2023-02-11T08:39:20.329Z,42.10
2023-02-11T08:41:56.693Z,39.13
2023-02-11T08:44:30.734Z,36.90
2023-02-11T08:47:05.394Z,41.13
2023-02-11T08:49:38.882Z,39.30
2023-02-11T08:52:12.031Z,42.93
2023-02-11T08:54:45.304Z,42.40
2023-02-11T08:57:18.743Z,41.30
2023-02-11T08:59:51.983Z,43.13
2023-02-11T09:02:26.792Z,45.60
2023-02-11T09:04:59.938Z,37.90
2023-02-11T09:07:33.050Z,41.50
2023-02-11T09:10:07.114Z,39.67
2023-02-11T09:12:40.262Z,38.37
2023-02-11T09:15:13.352Z,41.27
2023-02-11T09:17:47.821Z,38.23
2023-02-11T09:20:22.065Z,40.00
2023-02-11T09:22:58.052Z,41.03
2023-02-11T09:25:31.211Z,41.73
2023-02-11T09:28:04.639Z,39.93
2023-02-11T09:30:39.022Z,37.30
2023-02-11T09:33:13.740Z,37.90
2023-02-11T09:35:46.932Z,39.37
2023-02-11T09:38:20.124Z,40.50
2023-02-11T09:40:53.364Z,37.97
2023-02-11T09:43:34.475Z,39.47
2023-02-11T09:46:08.184Z,36.93
2023-02-11T09:48:46.573Z,37.67
2023-02-11T09:51:27.547Z,33.40
2023-02-11T09:54:08.723Z,32.53
2023-02-11T09:56:41.953Z,30.80
2023-02-11T09:59:16.646Z,31.00
2023-02-11T10:01:55.107Z,30.43
2023-02-11T10:04:58.434Z,31.17
2023-02-11T10:07:39.394Z,28.47
2023-02-11T10:10:29.494Z,30.57
2023-02-11T10:13:36.158Z,32.80
2023-02-11T10:16:30.944Z,30.20
2023-02-11T10:19:20.532Z,31.80
2023-02-11T10:22:06.066Z,32.67
2023-02-11T10:24:40.212Z,31.67
2023-02-11T10:27:21.712Z,28.27
2023-02-11T10:30:02.705Z,31.73
2023-02-11T10:32:44.384Z,31.27
2023-02-11T10:35:22.341Z,27.83
2023-02-11T10:37:57.342Z,28.83
2023-02-11T10:40:32.840Z,27.60
2023-02-11T10:43:11.387Z,28.87
2023-02-11T10:45:48.787Z,26.90
2023-02-11T10:48:44.553Z,25.97
2023-02-11T10:51:22.122Z,25.87
2023-02-11T10:54:21.596Z,25.57
2023-02-11T10:57:01.814Z,28.00
2023-02-11T10:59:40.447Z,26.07
2023-02-11T11:02:25.297Z,22.87
2023-02-11T11:05:00.611Z,22.17
2023-02-11T11:07:35.450Z,23.57
2023-02-11T11:10:29.583Z,23.47
2023-02-11T11:13:02.871Z,20.57
2023-02-11T11:15:36.130Z,17.90
2023-02-11T11:18:22.114Z,17.43
2023-02-11T11:21:01.279Z,16.07
2023-02-11T11:23:37.738Z,15.80
2023-02-11T11:26:15.741Z,15.53
2023-02-11T11:28:58.541Z,15.93
2023-02-11T11:31:35.740Z,13.50
2023-02-11T11:34:24.705Z,14.43
2023-02-11T11:36:59.700Z,13.77
2023-02-11T11:39:36.135Z,38.80
2023-02-11T11:42:28.094Z,17.10
2023-02-11T11:45:03.429Z,19.93
2023-02-11T11:47:43.022Z,16.20
2023-02-11T11:50:27.872Z,15.10
2023-02-11T11:53:07.222Z,18.00
2023-02-11T11:55:45.414Z,13.87
2023-02-11T11:58:22.946Z,13.93
2023-02-11T12:01:10.414Z,15.20
2023-02-11T12:04:12.139Z,15.70
2023-02-11T12:07:02.084Z,15.37
2023-02-11T12:09:42.913Z,12.70
2023-02-11T12:12:34.781Z,13.77
2023-02-11T12:15:26.538Z,13.43
2023-02-11T12:18:38.059Z,12.40
2023-02-11T12:21:27.286Z,14.70
2023-02-11T12:24:23.899Z,14.00
2023-02-11T12:27:04.972Z,14.13
2023-02-11T12:29:53.550Z,12.55
2023-02-11T12:32:39.720Z,13.70
2023-02-11T12:35:29.831Z,12.45
2023-02-11T12:38:38.744Z,12.18
2023-02-11T12:41:56.831Z,12.70
2023-02-11T12:44:43.194Z,13.68
2023-02-11T12:47:26.460Z,13.80
2023-02-11T12:50:15.268Z,12.57
2023-02-11T12:53:27.157Z,12.50
2023-02-11T12:56:06.907Z,12.90
2023-02-11T12:58:45.429Z,12.45
2023-02-11T13:01:23.774Z,13.32
2023-02-11T13:04:08.521Z,12.65
2023-02-11T13:06:48.077Z,12.50
2023-02-11T13:09:26.635Z,13.95
2023-02-11T13:12:21.995Z,14.35
2023-02-11T13:14:58.279Z,13.77
2023-02-11T13:17:39.392Z,13.48
2023-02-11T13:20:27.463Z,13.65
2023-02-11T13:23:13.092Z,13.10
2023-02-11T13:25:54.572Z,12.85
2023-02-11T13:28:42.591Z,13.98
2023-02-11T13:31:16.852Z,15.18
2023-02-11T13:33:50.594Z,15.15
2023-02-11T13:36:26.352Z,15.55
2023-02-11T13:39:05.005Z,15.88
2023-02-11T13:41:41.800Z,15.40
2023-02-11T13:44:25.629Z,16.23
2023-02-11T13:47:02.185Z,16.13
2023-02-11T13:49:41.111Z,15.85
2023-02-11T13:52:25.164Z,15.05
2023-02-11T13:55:10.633Z,17.65
2023-02-11T13:57:43.917Z,20.40
2023-02-11T14:00:46.998Z,18.17
2023-02-11T14:03:53.063Z,17.27
2023-02-11T14:06:47.123Z,18.00
2023-02-11T14:09:41.081Z,17.88
2023-02-11T14:12:35.929Z,17.10
2023-02-11T14:15:28.260Z,19.95
2023-02-11T14:18:01.452Z,18.40
2023-02-11T14:20:44.085Z,19.65
2023-02-11T14:23:28.363Z,17.35
2023-02-11T14:26:26.754Z,18.17
2023-02-11T14:29:10.778Z,19.10
2023-02-11T14:31:50.561Z,20.67
2023-02-11T14:34:48.194Z,25.67
2023-02-11T14:37:38.464Z,17.05
2023-02-11T14:40:25.638Z,18.00
2023-02-11T14:43:13.979Z,18.77
2023-02-11T14:45:54.752Z,16.73
2023-02-11T14:48:31.644Z,18.58
2023-02-11T14:51:08.628Z,18.88
2023-02-11T14:53:47.523Z,20.15
2023-02-11T14:56:26.302Z,16.88
2023-02-11T14:58:59.856Z,16.92
2023-02-11T15:01:37.611Z,16.63
2023-02-11T15:04:26.245Z,17.73
2023-02-11T15:07:05.483Z,20.55
2023-02-11T15:09:43.342Z,17.50
2023-02-11T15:12:23.730Z,19.02
2023-02-11T15:14:59.668Z,22.02
2023-02-11T15:17:34.298Z,20.85
2023-02-11T15:20:19.482Z,17.60
2023-02-11T15:22:59.266Z,19.40
2023-02-11T15:25:34.248Z,18.33
2023-02-11T15:28:22.230Z,19.83
2023-02-11T15:31:01.400Z,17.23
2023-02-11T15:33:35.978Z,16.58
2023-02-11T15:36:14.045Z,19.40
2023-02-11T15:38:47.460Z,15.98
2023-02-11T15:41:37.298Z,17.90
2023-02-11T15:44:29.561Z,19.50
2023-02-11T15:47:02.803Z,16.13
2023-02-11T15:49:37.402Z,15.82
2023-02-11T15:52:10.894Z,18.08
2023-02-11T15:54:47.719Z,18.75
2023-02-11T15:57:23.129Z,16.47
2023-02-11T15:59:57.417Z,16.58
2023-02-11T16:02:34.039Z,17.37
2023-02-11T16:05:10.849Z,17.13
2023-02-11T16:07:47.980Z,15.93
2023-02-11T16:10:25.409Z,17.23
2023-02-11T16:13:17.709Z,17.02
2023-02-11T16:15:57.863Z,15.50
2023-02-11T16:18:39.354Z,15.55
2023-02-11T16:21:17.988Z,19.67
2023-02-11T16:23:54.702Z,18.43
2023-02-11T16:26:33.502Z,18.87
2023-02-11T16:29:13.864Z,16.93
2023-02-11T16:31:50.246Z,15.23
2023-02-11T16:34:25.954Z,17.63
2023-02-11T16:37:00.596Z,20.83
2023-02-11T16:39:34.147Z,14.73
2023-02-11T16:42:07.860Z,20.93
2023-02-11T16:44:41.265Z,18.80
2023-02-11T16:47:25.426Z,20.93
2023-02-11T16:49:59.896Z,23.10
2023-02-11T16:52:35.057Z,18.17
2023-02-11T16:55:10.426Z,17.70
2023-02-11T16:57:43.562Z,19.20
2023-02-11T17:00:18.732Z,19.83
2023-02-11T17:02:51.976Z,18.90
2023-02-11T17:05:26.913Z,17.70
2023-02-11T17:08:02.476Z,18.40
2023-02-11T17:10:37.582Z,16.93
2023-02-11T17:13:10.835Z,15.57
2023-02-11T17:15:44.072Z,16.53
2023-02-11T17:18:17.348Z,16.33
2023-02-11T17:20:50.459Z,18.23
2023-02-11T17:23:25.155Z,16.73
2023-02-11T17:25:58.443Z,20.10
2023-02-11T17:28:32.436Z,19.23
2023-02-11T17:31:09.679Z,17.13
2023-02-11T17:33:42.973Z,16.97
2023-02-11T17:36:16.186Z,17.70
2023-02-11T17:38:51.405Z,20.47
2023-02-11T17:41:24.638Z,20.70
2023-02-11T17:43:59.845Z,22.30
2023-02-11T17:46:33.167Z,20.90
2023-02-11T17:49:06.408Z,20.37
2023-02-11T17:51:41.269Z,21.37
2023-02-11T17:54:18.401Z,22.77
2023-02-11T17:56:55.187Z,23.63
2023-02-11T17:59:35.322Z,20.57
2023-02-11T18:02:11.839Z,21.90
2023-02-11T18:04:46.127Z,21.93
2023-02-11T18:07:19.942Z,18.83
2023-02-11T18:09:55.033Z,21.90
2023-02-11T18:12:28.226Z,20.13
2023-02-11T18:15:01.606Z,21.07
2023-02-11T18:17:34.762Z,23.63
2023-02-11T18:20:12.903Z,27.63
2023-02-11T18:22:46.193Z,27.87
2023-02-11T18:25:21.107Z,26.97
2023-02-11T18:27:54.364Z,26.17
2023-02-11T18:30:28.074Z,22.77
2023-02-11T18:33:01.431Z,23.20
2023-02-11T18:35:38.520Z,21.80
2023-02-11T18:38:11.775Z,21.00
2023-02-11T18:40:47.632Z,22.87
2023-02-11T18:43:21.375Z,21.93
2023-02-11T18:45:55.487Z,20.23
2023-02-11T18:48:29.933Z,21.50
2023-02-11T18:51:03.185Z,21.97
2023-02-11T18:53:36.475Z,21.93
2023-02-11T18:56:14.203Z,21.80
2023-02-11T18:58:47.478Z,22.87
2023-02-11T19:01:24.450Z,22.53
2023-02-11T19:03:59.811Z,20.30
2023-02-11T19:06:36.864Z,21.83
2023-02-11T19:09:12.434Z,23.97
2023-02-11T19:11:54.353Z,21.37
2023-02-11T19:14:31.434Z,22.63
2023-02-11T19:17:07.578Z,26.00
2023-02-11T19:19:41.458Z,20.70
2023-02-11T19:22:14.590Z,16.70
2023-02-11T19:24:47.917Z,18.43
2023-02-11T19:27:22.378Z,19.87
2023-02-11T19:29:55.535Z,21.57
2023-02-11T19:32:28.838Z,23.40
2023-02-11T19:35:02.087Z,22.70
2023-02-11T19:37:35.220Z,25.40
2023-02-11T19:40:10.170Z,25.43
2023-02-11T19:42:44.869Z,26.80
2023-02-11T19:45:18.296Z,26.40
2023-02-11T19:47:56.017Z,24.53
2023-02-11T19:50:29.339Z,24.97
2023-02-11T19:53:03.132Z,26.43
2023-02-11T19:55:36.610Z,25.43
2023-02-11T19:58:11.204Z,24.53
2023-02-11T20:00:44.894Z,25.60
2023-02-11T20:03:18.053Z,24.97
2023-02-11T20:05:51.438Z,27.83
2023-02-11T20:08:24.693Z,27.57
2023-02-11T20:10:58.440Z,24.53
2023-02-11T20:13:34.094Z,18.40
2023-02-11T20:16:09.509Z,18.57
2023-02-11T20:18:42.747Z,18.70
2023-02-11T20:21:19.233Z,20.73
2023-02-11T20:23:53.458Z,19.20
2023-02-11T20:26:28.990Z,14.77
2023-02-11T20:29:04.302Z,15.07
2023-02-11T20:31:38.063Z,15.80
2023-02-11T20:34:11.975Z,18.33
2023-02-11T20:36:51.517Z,18.20
2023-02-11T20:39:26.836Z,19.30
2023-02-11T20:41:59.988Z,18.23
2023-02-11T20:44:36.713Z,20.57
2023-02-11T20:47:09.920Z,21.07
2023-02-11T20:49:43.037Z,21.23
2023-02-11T20:52:16.233Z,20.67
2023-02-11T20:54:49.458Z,22.43
2023-02-11T20:57:22.607Z,22.53
2023-02-11T20:59:57.239Z,21.33
2023-02-11T21:02:30.697Z,19.60
2023-02-11T21:05:03.849Z,18.57
2023-02-11T21:07:40.107Z,16.93
2023-02-11T21:10:13.706Z,14.23
2023-02-11T21:12:49.568Z,12.70
2023-02-11T21:15:24.749Z,15.00
2023-02-11T21:17:57.859Z,13.73
2023-02-11T21:20:31.056Z,13.67
2023-02-11T21:23:04.702Z,16.53
2023-02-11T21:25:38.025Z,15.27
2023-02-11T21:28:11.149Z,16.83
2023-02-11T21:30:45.962Z,16.87
2023-02-11T21:33:19.087Z,18.00
2023-02-11T21:35:56.600Z,18.03
2023-02-11T21:38:30.799Z,18.23
2023-02-11T21:41:05.622Z,18.37
2023-02-11T21:43:38.938Z,17.73
2023-02-11T21:46:16.368Z,19.37
2023-02-11T21:48:50.173Z,18.47
2023-02-11T21:51:27.698Z,17.40
2023-02-11T21:54:03.322Z,21.03
2023-02-11T21:56:36.633Z,17.73
2023-02-11T21:59:13.495Z,18.67
2023-02-11T22:01:47.999Z,17.53
2023-02-11T22:04:21.721Z,17.57
2023-02-11T22:06:54.888Z,16.43
2023-02-11T22:09:28.025Z,16.53
2023-02-11T22:12:01.237Z,15.90
2023-02-11T22:14:34.484Z,16.07
2023-02-11T22:17:09.479Z,16.93
2023-02-11T22:19:42.962Z,16.93
2023-02-11T22:22:18.351Z,18.37
2023-02-11T22:24:51.604Z,18.60
2023-02-11T22:27:24.739Z,18.93
2023-02-11T22:29:57.860Z,19.60
2023-02-11T22:32:32.415Z,19.67
2023-02-11T22:35:06.004Z,18.60
2023-02-11T22:37:39.147Z,19.50
2023-02-11T22:40:14.246Z,18.83
2023-02-11T22:42:47.465Z,18.87
2023-02-11T22:45:20.558Z,17.33
2023-02-11T22:47:55.201Z,17.83
2023-02-11T22:50:28.290Z,18.30
2023-02-11T22:53:01.408Z,18.30
2023-02-11T22:55:38.382Z,17.77
2023-02-11T22:58:11.752Z,18.27
2023-02-11T23:00:44.865Z,17.90
2023-02-11T23:03:19.437Z,17.87
2023-02-11T23:05:52.998Z,19.10
2023-02-11T23:08:27.151Z,16.83
2023-02-11T23:11:05.682Z,18.10
2023-02-11T23:13:41.955Z,17.63
2023-02-11T23:16:18.017Z,18.80
2023-02-11T23:18:53.498Z,18.27
2023-02-11T23:21:30.382Z,18.50
2023-02-11T23:24:06.493Z,18.73
2023-02-11T23:26:40.416Z,19.33
2023-02-11T23:29:13.746Z,20.33
2023-02-11T23:31:47.006Z,20.37
2023-02-11T23:34:25.305Z,20.10
2023-02-11T23:36:59.641Z,21.10
2023-02-11T23:39:32.790Z,19.80
2023-02-11T23:42:06.790Z,24.57
2023-02-11T23:44:40.030Z,24.30
2023-02-11T23:47:13.455Z,24.57
2023-02-11T23:49:47.910Z,16.70
2023-02-11T23:52:21.019Z,16.63
2023-02-11T23:54:54.152Z,15.97
2023-02-11T23:57:27.438Z,18.20
